Flight Track Log - Related Links

Times and Time Zones

All times are in EDT time to prevent confusion due to time zone crossing. See the GJS6221 flight status page for this flight to view local times or setup timezone preferences in your user account.

Time Position Orientation Groundspeed Altitude Reporting Facility
EDT Latitude Longitude Course Direction KTS MPH feet Rate Location/Type
Sat 07:18:00 AM 45.4500 -73.7167 230° Southwest 130 150 1,000  Level Montreal Center
Sat 07:19:00 AM 45.4000 -73.8000 230° Southwest 190 219 3,700 2,550 Climbing Montreal Center
Sat 07:20:00 AM 45.3500 -73.8167 193° South 250 288 6,100 2,750 Climbing Montreal Center
Sat 07:21:00 AM 45.2667 -73.8500 196° South 280 322 9,200 2,850 Climbing Montreal Center
Sat 07:22:00 AM 45.1833 -73.9000 203° Southwest 300 345 11,800 2,350 Climbing Montreal Center
Sat 07:23:00 AM 45.1000 -73.9333 196° South 340 391 13,900 2,000 Climbing Montreal Center
Sat 07:24:00 AM 45.0000 -73.9000 167° South 380 437 15,800 1,800 Climbing Montreal Center
Sat 07:25:00 AM 44.8833 -73.9167 186° South 400 460 17,500 1,515 Climbing Montreal Center
Sat 07:25:39 AM 44.8456 -73.9214 185° South 404 465 18,300 1,697 Climbing Boston Center
Sat 07:26:39 AM 44.7125 -73.9122 177° South 433 498 20,300 1,800 Climbing Boston Center
Sat 07:27:39 AM 44.5894 -73.9064 178° South 443 510 21,900 1,650 Climbing Boston Center
Sat 07:28:39 AM 44.4458 -73.8997 178° South 455 524 23,600 1,550 Climbing Boston Center
Sat 07:29:39 AM 44.3147 -73.8936 178° South 468 539 25,000 1,300 Climbing Boston Center
Sat 07:30:39 AM 44.1794 -73.8844 177° South 478 550 26,200 1,200 Climbing Boston Center
Sat 07:31:39 AM 44.0419 -73.8783 178° South 483 556 27,400 900 Climbing Boston Center
Sat 07:32:39 AM 43.9128 -73.8667 176° South 508 585 28,000 300 Climbing Boston Center
Sat 07:33:39 AM 43.7692 -73.8603 178° South 515 593 28,000  Level Boston Center
Sat 07:34:39 AM 43.6047 -73.8508 178° South 521 600 28,000 -350 Level Boston Center
Sat 07:35:39 AM 43.4567 -73.8444 178° South 527 606 27,300 -950 Descending Boston Center
Sat 07:36:39 AM 43.3275 -73.8386 178° South 533 613 26,100 -1,300 Descending Boston Center
Sat 07:37:39 AM 43.1881 -73.8297 177° South 521 600 24,700 -1,400 Descending Boston Center
Sat 07:38:39 AM 43.0506 -73.8236 178° South 506 582 23,300 -1,400 Descending Boston Center
Sat 07:39:39 AM 42.9236 -73.8181 178° South 482 555 21,900 -1,150 Descending Boston Center
Sat 07:40:39 AM 42.8006 -73.8125 178° South 460 529 21,000 -600 Descending Boston Center
Sat 07:41:39 AM 42.6819 -73.7900 172° South 441 507 20,700 -600 Descending Boston Center
Sat 07:42:39 AM 42.5511 -73.7675 173° South 441 507 19,800 -900 Descending Boston Center
Sat 07:43:39 AM 42.4283 -73.7397 171° South 446 513 18,900 -850 Descending Boston Center
Sat 07:44:39 AM 42.3036 -73.7117 171° South 451 519 18,100 -450 Descending Boston Center
Sat 07:45:39 AM 42.1850 -73.6897 172° South 446 513 18,000 -500 Descending Boston Center
Sat 07:46:39 AM 42.0664 -73.6706 173° South 434 499 17,100 -950 Descending Boston Center
Sat 07:47:39 AM 41.9522 -73.6489 172° South 428 493 16,100 -1,200 Descending Boston Center
Sat 07:48:39 AM 41.8392 -73.6772 191° South 417 480 14,700 -1,450 Descending Boston Center
Sat 07:49:39 AM 41.7369 -73.7031 191° South 406 467 13,200 -1,450 Descending Boston Center
Sat 07:50:39 AM 41.6386 -73.7289 191° South 386 444 11,800 -1,271 Descending Boston Center
Sat 07:51:37 AM 41.5500 -73.7500 190° South 303 349 10,700 -1,232 Descending New York TRACON
Sat 07:52:31 AM 41.4833 -73.7667 191° South 284 327 9,500 -842 Descending New York TRACON
Sat 07:53:31 AM 41.4000 -73.7833 189° South 281 323 9,100 -600 Descending New York TRACON
Sat 07:54:31 AM 41.3333 -73.7833 180° South 299 344 8,300 -1,048 Descending New York TRACON
Sat 07:55:37 AM 41.2500 -73.7167 149° Southeast 295 339 6,900 -1,300 Descending New York TRACON
Sat 07:56:31 AM 41.1833 -73.6667 151° Southeast 291 335 5,700 -1,316 Descending New York TRACON
Sat 07:57:31 AM 41.1167 -73.6333 159° South 287 330 4,400 -800 Descending New York TRACON
Sat 07:58:31 AM 41.0333 -73.6167 171° South 284 327 4,100 -150 Descending New York TRACON
Sat 07:59:31 AM 40.9667 -73.6000 169° South 284 327 4,100  Level New York TRACON
Sat 08:00:31 AM 40.8833 -73.6167 189° South 280 322 4,100  Level New York TRACON
Sat 08:01:37 AM 40.8333 -73.7000 232° Southwest 270 311 4,100  Level New York TRACON
Sat 08:02:37 AM 40.7833 -73.7667 225° Southwest 275 316 4,100  Level New York TRACON
Sat 08:03:31 AM 40.7167 -73.8000 201° Southwest 273 314 4,100  Level New York TRACON
Sat 08:04:31 AM 40.6667 -73.8667 225° Southwest 267 307 4,100  Level New York TRACON
Sat 08:05:31 AM 40.7167 -73.9333 315° West 253 291 4,100  Level New York TRACON
Sat 08:06:37 AM 40.6833 -74.0333 246° West 256 295 4,100  Level New York TRACON
Sat 08:07:31 AM 40.6667 -74.1000 252° West 229 264 4,100 -250 Level New York TRACON
Sat 08:08:37 AM 40.6333 -74.0333 123° Southeast 204 235 3,600 -524 Descending New York TRACON
Sat 08:09:37 AM 40.6333 -73.9833 90° East 179 206 3,000 -800 Descending New York TRACON
Sat 08:10:37 AM 40.6833 -73.9500 27° Northeast 170 196 2,000 -842 Descending New York TRACON
Sat 08:11:31 AM 40.7167 -73.9333 21° North 127 146 1,400 -667 Descending New York TRACON

Login

Don't have an account? Register now (free) for customized features, flight alerts, and more!